Time;durP1;ratioP1;P1;durP2;ratioP2;P2;SDS_P1;SDS_P2;PMS_P1;PMS_P2;Temp;Humidity;BMP_temperature;BMP_pressure;BME280_temperature;BME280_humidity;BME280_pressure;Samples;Min_cycle;Max_cycle;Signal;HPM_P1;HPM_P2
2021/09/26 00:02:13;;;;;;;38.53;33.00;;;;;;;;;;5067254;28;20300;-76
2021/09/26 00:04:40;;;;;;;42.33;33.10;;;;;;;;;;5067329;28;20208;-76
2021/09/26 00:07:07;;;;;;;43.97;33.87;;;;;;;;;;5067583;28;21032;-76
2021/09/26 00:09:33;;;;;;;45.90;33.73;;;;;;;;;;5067082;28;20216;-76
2021/09/26 00:12:01;;;;;;;39.63;34.03;;;;;;;;;;5067400;28;20224;-76
2021/09/26 00:14:28;;;;;;;41.30;32.93;;;;;;;;;;5067297;28;20226;-76
2021/09/26 00:16:58;;;;;;;39.67;32.87;;;;;;;;;;5067066;28;20341;-76
2021/09/26 00:19:24;;;;;;;39.97;31.43;;;;;;;;;;5067393;28;20216;-76
2021/09/26 00:21:51;;;;;;;38.90;32.00;;;;;;;;;;5066888;28;20345;-76
2021/09/26 00:24:18;;;;;;;37.00;30.77;;;;;;;;;;5067088;28;20601;-76
2021/09/26 00:26:44;;;;;;;37.67;30.90;;;;;;;;;;5069461;28;20286;-76
2021/09/26 00:29:12;;;;;;;43.07;32.47;;;;;;;;;;5071148;28;20246;-76
2021/09/26 00:31:39;;;;;;;39.73;30.73;;;;;;;;;;5070884;28;20220;-76
2021/09/26 00:34:05;;;;;;;35.60;29.00;;;;;;;;;;5070866;28;20261;-76
2021/09/26 00:36:32;;;;;;;34.80;29.50;;;;;;;;;;5071547;28;20538;-76
2021/09/26 00:38:58;;;;;;;37.47;30.00;;;;;;;;;;5070667;28;20681;-76
2021/09/26 00:41:25;;;;;;;37.27;29.83;;;;;;;;;;5071607;28;20218;-76
2021/09/26 00:43:51;;;;;;;35.40;29.60;;;;;;;;;;5070844;28;20243;-76
2021/09/26 00:46:19;;;;;;;33.63;29.93;;;;;;;;;;5070995;28;20740;-76
2021/09/26 00:48:46;;;;;;;38.27;30.90;;;;;;;;;;5070619;28;20231;-76
2021/09/26 00:51:13;;;;;;;37.00;30.70;;;;;;;;;;5070584;28;20215;-76
2021/09/26 00:53:42;;;;;;;37.77;32.23;;;;;;;;;;5070445;28;20235;-76
2021/09/26 00:56:10;;;;;;;39.30;33.23;;;;;;;;;;5070511;28;20211;-76
2021/09/26 00:58:37;;;;;;;45.33;36.67;;;;;;;;;;5070932;28;20221;-75
2021/09/26 01:01:05;;;;;;;45.70;36.97;;;;;;;;;;5070248;28;20215;-76
2021/09/26 01:03:33;;;;;;;49.10;37.80;;;;;;;;;;5070645;28;20304;-76
2021/09/26 01:06:10;;;;;;;50.60;37.87;;;;;;;;;;5070137;28;20697;-76
2021/09/26 01:08:46;;;;;;;47.70;38.17;;;;;;;;;;5070350;28;20268;-76
2021/09/26 01:11:22;;;;;;;42.33;34.27;;;;;;;;;;5070210;28;20206;-76
2021/09/26 01:13:56;;;;;;;48.23;36.40;;;;;;;;;;5069849;28;20215;-75
2021/09/26 01:16:29;;;;;;;51.27;37.40;;;;;;;;;;5070138;28;20210;-75
2021/09/26 01:19:06;;;;;;;48.73;37.77;;;;;;;;;;5069928;28;20229;-76
2021/09/26 01:21:42;;;;;;;48.07;36.83;;;;;;;;;;5070480;28;21141;-75
2021/09/26 01:24:36;;;;;;;43.37;34.17;;;;;;;;;;5071936;28;20216;-78
2021/09/26 01:27:19;;;;;;;44.10;34.30;;;;;;;;;;5071776;28;20388;-76
2021/09/26 01:30:27;;;;;;;39.47;34.17;;;;;;;;;;5069680;28;20631;-76
2021/09/26 01:32:59;;;;;;;44.50;34.67;;;;;;;;;;5069837;28;20227;-76
2021/09/26 01:35:28;;;;;;;41.33;32.53;;;;;;;;;;5070411;28;20229;-78
2021/09/26 01:38:10;;;;;;;41.13;33.93;;;;;;;;;;5071938;28;20684;-78
2021/09/26 01:40:46;;;;;;;42.37;32.97;;;;;;;;;;5073118;28;20217;-78
2021/09/26 01:43:16;;;;;;;41.13;33.80;;;;;;;;;;5073644;28;20209;-78
2021/09/26 01:45:48;;;;;;;41.73;33.97;;;;;;;;;;5072680;28;20234;-78
2021/09/26 01:48:18;;;;;;;42.27;34.00;;;;;;;;;;5072786;28;20279;-78
2021/09/26 01:50:47;;;;;;;43.03;35.57;;;;;;;;;;5073314;28;20214;-78
2021/09/26 01:53:15;;;;;;;46.10;36.37;;;;;;;;;;5073351;28;20295;-78
2021/09/26 01:55:44;;;;;;;44.03;34.93;;;;;;;;;;5073293;28;20336;-78
2021/09/26 01:58:11;;;;;;;45.43;37.33;;;;;;;;;;5073874;28;20268;-78
2021/09/26 02:00:40;;;;;;;45.90;38.10;;;;;;;;;;5073788;28;20259;-78
2021/09/26 02:03:08;;;;;;;51.43;38.53;;;;;;;;;;5073514;28;20231;-78
2021/09/26 02:05:39;;;;;;;47.37;36.47;;;;;;;;;;5073838;28;20707;-78
2021/09/26 02:08:07;;;;;;;45.00;38.23;;;;;;;;;;5072322;28;20256;-76
2021/09/26 02:10:36;;;;;;;44.80;38.60;;;;;;;;;;5069324;28;20245;-75
2021/09/26 02:13:05;;;;;;;48.70;39.13;;;;;;;;;;5069270;28;20210;-76
2021/09/26 02:15:32;;;;;;;48.33;38.53;;;;;;;;;;5069024;28;20582;-76
2021/09/26 02:18:01;;;;;;;49.17;39.43;;;;;;;;;;5068547;28;20664;-76
2021/09/26 02:20:30;;;;;;;47.90;38.33;;;;;;;;;;5069053;28;20206;-76
2021/09/26 02:22:59;;;;;;;49.93;38.83;;;;;;;;;;5068765;28;20222;-76
2021/09/26 02:25:26;;;;;;;50.43;38.43;;;;;;;;;;5068692;28;20229;-76
2021/09/26 02:27:54;;;;;;;48.60;38.20;;;;;;;;;;5068817;28;20250;-76
2021/09/26 02:30:20;;;;;;;51.93;41.17;;;;;;;;;;5068594;28;20218;-76
2021/09/26 02:32:47;;;;;;;47.13;38.37;;;;;;;;;;5068250;28;20230;-76
2021/09/26 02:35:15;;;;;;;49.33;39.03;;;;;;;;;;5068537;28;20213;-76
2021/09/26 02:37:44;;;;;;;42.60;36.73;;;;;;;;;;5068372;28;20218;-76
2021/09/26 02:40:12;;;;;;;49.70;37.10;;;;;;;;;;5070023;28;20248;-78
2021/09/26 02:42:50;;;;;;;52.07;39.00;;;;;;;;;;5071820;28;20244;-78
2021/09/26 02:45:23;;;;;;;47.57;38.57;;;;;;;;;;5072131;28;20214;-78
2021/09/26 02:47:52;;;;;;;51.17;40.20;;;;;;;;;;5071692;28;20234;-78
2021/09/26 02:50:19;;;;;;;54.60;39.13;;;;;;;;;;5072808;28;20217;-78
2021/09/26 02:52:47;;;;;;;46.23;37.73;;;;;;;;;;5073023;28;20267;-78
2021/09/26 02:55:14;;;;;;;51.00;39.73;;;;;;;;;;5072683;28;20249;-78
2021/09/26 02:57:41;;;;;;;52.67;41.53;;;;;;;;;;5071859;28;20250;-78
2021/09/26 03:00:09;;;;;;;54.90;42.17;;;;;;;;;;5071441;28;20606;-78
2021/09/26 03:02:38;;;;;;;57.57;42.37;;;;;;;;;;5071233;28;20238;-78
2021/09/26 03:05:05;;;;;;;54.70;42.40;;;;;;;;;;5071563;28;20214;-78
2021/09/26 03:07:32;;;;;;;47.37;38.83;;;;;;;;;;5070472;28;20638;-76
2021/09/26 03:10:00;;;;;;;54.10;41.13;;;;;;;;;;5067779;28;20645;-75
2021/09/26 03:12:27;;;;;;;50.50;41.10;;;;;;;;;;5067525;28;20727;-75
2021/09/26 03:14:54;;;;;;;49.47;39.20;;;;;;;;;;5068251;28;20210;-75
2021/09/26 03:17:20;;;;;;;46.37;37.80;;;;;;;;;;5068792;28;20241;-77
2021/09/26 03:19:47;;;;;;;50.30;39.57;;;;;;;;;;5069197;28;20753;-78
2021/09/26 03:22:13;;;;;;;52.03;41.13;;;;;;;;;;5069538;28;20279;-78
2021/09/26 03:24:42;;;;;;;53.87;42.00;;;;;;;;;;5069570;28;20206;-78
2021/09/26 03:27:11;;;;;;;48.27;40.53;;;;;;;;;;5070498;28;20841;-78
2021/09/26 03:29:40;;;;;;;55.50;43.57;;;;;;;;;;5067722;28;20669;-76
2021/09/26 03:32:08;;;;;;;52.07;41.50;;;;;;;;;;5067807;28;20222;-76
2021/09/26 03:34:34;;;;;;;53.60;41.70;;;;;;;;;;5067326;28;20209;-76
2021/09/26 03:37:01;;;;;;;59.00;44.23;;;;;;;;;;5066938;28;20218;-76
2021/09/26 03:39:28;;;;;;;49.47;41.37;;;;;;;;;;5068598;28;20214;-78
2021/09/26 03:41:54;;;;;;;56.90;43.47;;;;;;;;;;5069722;28;20220;-78
2021/09/26 03:44:22;;;;;;;47.90;38.93;;;;;;;;;;5070342;28;20740;-78
2021/09/26 03:46:49;;;;;;;54.50;41.60;;;;;;;;;;5070769;28;20259;-78
2021/09/26 03:49:18;;;;;;;50.47;39.10;;;;;;;;;;5071541;28;20213;-78
2021/09/26 03:51:45;;;;;;;55.87;41.13;;;;;;;;;;5069758;28;20210;-76
2021/09/26 03:54:11;;;;;;;53.20;39.47;;;;;;;;;;5067326;28;21067;-76
2021/09/26 03:56:38;;;;;;;53.17;41.60;;;;;;;;;;5067342;28;20213;-76
2021/09/26 03:59:04;;;;;;;52.53;40.43;;;;;;;;;;5067576;28;20210;-76
2021/09/26 04:01:32;;;;;;;49.10;39.70;;;;;;;;;;5066872;28;20282;-75
2021/09/26 04:03:58;;;;;;;54.93;39.90;;;;;;;;;;5067298;28;20226;-75
2021/09/26 04:06:25;;;;;;;54.83;43.33;;;;;;;;;;5067104;28;20635;-76
2021/09/26 04:08:51;;;;;;;53.17;39.80;;;;;;;;;;5069638;28;20243;-78
2021/09/26 04:11:20;;;;;;;47.83;38.30;;;;;;;;;;5068555;28;20214;-76
2021/09/26 04:13:46;;;;;;;50.17;38.50;;;;;;;;;;5066975;28;20220;-75
2021/09/26 04:16:13;;;;;;;49.57;39.57;;;;;;;;;;5066915;28;20210;-75
2021/09/26 04:18:40;;;;;;;57.67;42.73;;;;;;;;;;5066697;28;20624;-75
2021/09/26 04:21:07;;;;;;;51.93;40.33;;;;;;;;;;5066881;28;20217;-75
2021/09/26 04:23:33;;;;;;;47.90;38.27;;;;;;;;;;5067119;28;20267;-75
2021/09/26 04:26:00;;;;;;;48.03;39.60;;;;;;;;;;5066883;28;20757;-77
2021/09/26 04:28:26;;;;;;;49.93;39.77;;;;;;;;;;5066694;28;20217;-77
2021/09/26 04:30:53;;;;;;;54.00;44.53;;;;;;;;;;5066485;28;20896;-76
2021/09/26 04:33:19;;;;;;;56.70;44.70;;;;;;;;;;5066868;28;20221;-75
2021/09/26 04:35:47;;;;;;;57.90;42.60;;;;;;;;;;5066201;28;20224;-75
2021/09/26 04:38:14;;;;;;;57.80;44.70;;;;;;;;;;5066511;28;20668;-76
2021/09/26 04:40:41;;;;;;;60.10;43.93;;;;;;;;;;5066295;28;20213;-76
2021/09/26 04:43:08;;;;;;;61.13;45.37;;;;;;;;;;5066798;28;20216;-75
2021/09/26 04:45:34;;;;;;;57.37;42.63;;;;;;;;;;5066469;28;20213;-76
2021/09/26 04:48:01;;;;;;;53.80;41.60;;;;;;;;;;5066426;28;20660;-76
2021/09/26 04:50:27;;;;;;;56.20;42.40;;;;;;;;;;5066463;28;20221;-75
2021/09/26 04:52:55;;;;;;;57.97;44.57;;;;;;;;;;5066344;28;20218;-75
2021/09/26 04:55:24;;;;;;;59.57;44.50;;;;;;;;;;5066466;28;20589;-75
2021/09/26 04:57:50;;;;;;;52.53;42.13;;;;;;;;;;5066040;28;20221;-75
2021/09/26 05:00:17;;;;;;;56.83;43.80;;;;;;;;;;5066046;28;20240;-76
2021/09/26 05:02:44;;;;;;;53.53;42.43;;;;;;;;;;5066018;28;20707;-76
2021/09/26 05:05:11;;;;;;;52.33;41.10;;;;;;;;;;5066535;28;20625;-76
2021/09/26 05:07:37;;;;;;;55.20;42.10;;;;;;;;;;5066074;28;20236;-76
2021/09/26 05:10:06;;;;;;;56.87;42.23;;;;;;;;;;5066356;28;20741;-76
2021/09/26 05:12:33;;;;;;;47.60;39.00;;;;;;;;;;5065995;28;20658;-76
2021/09/26 05:15:03;;;;;;;52.60;41.23;;;;;;;;;;5069214;28;20211;-76
2021/09/26 05:17:30;;;;;;;48.70;37.23;;;;;;;;;;5069590;28;20226;-76
2021/09/26 05:19:56;;;;;;;49.17;38.30;;;;;;;;;;5068944;28;20285;-76
2021/09/26 05:22:23;;;;;;;45.10;36.67;;;;;;;;;;5068621;28;20222;-76
2021/09/26 05:24:49;;;;;;;51.80;41.10;;;;;;;;;;5068405;28;20600;-76
2021/09/26 05:27:17;;;;;;;54.27;39.90;;;;;;;;;;5068403;28;20241;-76
2021/09/26 05:29:44;;;;;;;56.30;40.23;;;;;;;;;;5068815;28;20214;-76
2021/09/26 05:32:11;;;;;;;51.33;39.97;;;;;;;;;;5069268;28;20238;-76
2021/09/26 05:34:38;;;;;;;55.37;40.87;;;;;;;;;;5069060;28;20206;-76
2021/09/26 05:37:05;;;;;;;46.73;37.87;;;;;;;;;;5069163;28;20554;-76
2021/09/26 05:39:32;;;;;;;47.73;39.50;;;;;;;;;;5068560;28;20225;-76
2021/09/26 05:42:02;;;;;;;50.63;40.23;;;;;;;;;;5068382;28;20332;-76
2021/09/26 05:44:30;;;;;;;46.83;37.43;;;;;;;;;;5068646;28;20237;-76
2021/09/26 05:46:57;;;;;;;52.07;39.53;;;;;;;;;;5068146;28;20815;-76
2021/09/26 05:49:23;;;;;;;46.97;37.47;;;;;;;;;;5068684;28;20214;-74
2021/09/26 05:51:50;;;;;;;46.93;37.73;;;;;;;;;;5068264;28;20221;-74
2021/09/26 05:54:16;;;;;;;49.90;40.90;;;;;;;;;;5068248;28;20242;-76
2021/09/26 05:56:43;;;;;;;48.77;37.63;;;;;;;;;;5067780;28;20225;-76
2021/09/26 05:59:09;;;;;;;45.57;37.23;;;;;;;;;;5068398;28;20278;-76
2021/09/26 06:01:37;;;;;;;43.13;36.70;;;;;;;;;;5067414;28;20213;-76
2021/09/26 06:04:04;;;;;;;41.67;35.97;;;;;;;;;;5068093;28;20234;-76
2021/09/26 06:06:30;;;;;;;44.37;35.23;;;;;;;;;;5066982;28;20271;-74
2021/09/26 06:08:57;;;;;;;41.20;35.10;;;;;;;;;;5067395;28;20649;-74
2021/09/26 06:11:23;;;;;;;45.80;37.23;;;;;;;;;;5065988;28;20233;-76
2021/09/26 06:13:49;;;;;;;40.33;34.37;;;;;;;;;;5066411;28;20213;-76
2021/09/26 06:16:16;;;;;;;38.10;32.40;;;;;;;;;;5066343;28;21212;-74
2021/09/26 06:18:44;;;;;;;42.47;34.53;;;;;;;;;;5066458;28;20275;-76
2021/09/26 06:21:10;;;;;;;43.77;35.97;;;;;;;;;;5065062;28;20240;-74
2021/09/26 06:23:37;;;;;;;38.17;31.97;;;;;;;;;;5065965;28;20267;-74
2021/09/26 06:26:03;;;;;;;36.20;31.80;;;;;;;;;;5065958;28;20239;-74
2021/09/26 06:28:30;;;;;;;38.43;32.63;;;;;;;;;;5066027;28;20768;-74
2021/09/26 06:30:56;;;;;;;35.90;31.33;;;;;;;;;;5066248;28;20628;-74
2021/09/26 06:33:25;;;;;;;35.77;30.43;;;;;;;;;;5066043;28;20237;-74
2021/09/26 06:35:53;;;;;;;34.27;30.30;;;;;;;;;;5066253;28;20217;-74
2021/09/26 06:38:19;;;;;;;35.50;31.80;;;;;;;;;;5065578;28;20287;-74
2021/09/26 06:40:46;;;;;;;35.03;30.60;;;;;;;;;;5065768;28;20835;-74
2021/09/26 06:43:13;;;;;;;34.93;31.13;;;;;;;;;;5065477;28;20213;-74
2021/09/26 06:45:40;;;;;;;32.63;28.03;;;;;;;;;;5065626;28;20210;-74
2021/09/26 06:48:06;;;;;;;35.67;30.50;;;;;;;;;;5065857;28;20234;-74
2021/09/26 06:50:33;;;;;;;34.33;28.97;;;;;;;;;;5065411;28;20226;-74
2021/09/26 06:53:01;;;;;;;35.47;29.97;;;;;;;;;;5054975;28;20680;-74
2021/09/26 06:55:27;;;;;;;32.67;28.23;;;;;;;;;;5062225;28;20591;-74
2021/09/26 06:57:54;;;;;;;35.00;31.27;;;;;;;;;;5066006;28;20218;-74
2021/09/26 07:00:20;;;;;;;33.33;29.60;;;;;;;;;;5064447;28;20218;-74
2021/09/26 07:02:47;;;;;;;31.00;27.90;;;;;;;;;;5064560;28;20273;-74
2021/09/26 07:05:13;;;;;;;30.80;27.60;;;;;;;;;;5064098;28;20204;-74
2021/09/26 07:07:43;;;;;;;30.70;27.43;;;;;;;;;;5064163;28;20231;-74
2021/09/26 07:10:12;;;;;;;30.47;27.10;;;;;;;;;;5065003;28;20239;-74
2021/09/26 07:12:39;;;;;;;27.50;23.97;;;;;;;;;;5064990;28;20579;-74
2021/09/26 07:15:07;;;;;;;29.30;26.03;;;;;;;;;;5065866;28;20224;-75
2021/09/26 07:17:35;;;;;;;29.43;24.70;;;;;;;;;;5065344;28;20232;-74
2021/09/26 07:20:01;;;;;;;28.63;25.57;;;;;;;;;;5065185;28;20211;-74
2021/09/26 07:22:28;;;;;;;27.53;24.60;;;;;;;;;;5065140;28;20581;-74
2021/09/26 07:24:56;;;;;;;27.87;24.90;;;;;;;;;;5064847;28;20224;-74
2021/09/26 07:27:26;;;;;;;27.17;24.27;;;;;;;;;;5064312;28;20248;-75
2021/09/26 07:29:54;;;;;;;28.60;25.57;;;;;;;;;;5064460;28;20260;-74
2021/09/26 07:32:21;;;;;;;28.07;25.27;;;;;;;;;;5064479;28;20679;-75
2021/09/26 07:34:48;;;;;;;27.30;24.50;;;;;;;;;;5061388;28;20295;-74
2021/09/26 07:37:14;;;;;;;27.30;24.30;;;;;;;;;;5063079;28;20214;-75
2021/09/26 07:39:41;;;;;;;27.27;24.33;;;;;;;;;;5064380;28;20331;-74
2021/09/26 07:42:07;;;;;;;27.80;24.90;;;;;;;;;;5063912;28;20219;-74
2021/09/26 07:44:35;;;;;;;26.47;23.60;;;;;;;;;;5064526;28;20223;-75
2021/09/26 07:47:02;;;;;;;26.53;23.83;;;;;;;;;;5065160;28;20597;-75
2021/09/26 07:49:28;;;;;;;26.90;24.03;;;;;;;;;;5064403;28;20251;-74
2021/09/26 07:51:55;;;;;;;27.87;24.97;;;;;;;;;;5064861;28;20207;-75
2021/09/26 07:54:21;;;;;;;27.30;24.37;;;;;;;;;;5064364;28;20813;-75
2021/09/26 07:56:49;;;;;;;25.00;22.30;;;;;;;;;;5064671;28;21239;-74
2021/09/26 07:59:15;;;;;;;27.83;24.37;;;;;;;;;;5063647;28;20209;-75
2021/09/26 08:01:44;;;;;;;25.27;22.57;;;;;;;;;;5064998;28;20228;-74
2021/09/26 08:04:10;;;;;;;25.97;23.23;;;;;;;;;;5064431;28;20218;-75
2021/09/26 08:06:37;;;;;;;26.40;23.70;;;;;;;;;;5064796;28;20216;-75
2021/09/26 08:09:04;;;;;;;24.73;22.17;;;;;;;;;;5064728;28;20639;-75
2021/09/26 08:11:31;;;;;;;27.17;24.30;;;;;;;;;;5064553;28;20297;-75
2021/09/26 08:13:58;;;;;;;27.90;23.07;;;;;;;;;;5065379;28;20259;-75
2021/09/26 08:16:24;;;;;;;26.53;23.73;;;;;;;;;;5064378;28;20221;-75
2021/09/26 08:18:52;;;;;;;26.00;23.30;;;;;;;;;;5064131;28;20236;-75
2021/09/26 08:21:19;;;;;;;25.20;22.70;;;;;;;;;;5064452;28;20555;-75
2021/09/26 08:23:45;;;;;;;25.67;22.37;;;;;;;;;;5064812;28;20220;-75
2021/09/26 08:26:12;;;;;;;25.17;22.33;;;;;;;;;;5064732;28;20239;-75
2021/09/26 08:28:38;;;;;;;25.23;22.53;;;;;;;;;;5064385;28;20684;-75
2021/09/26 08:31:06;;;;;;;26.00;23.30;;;;;;;;;;5063865;28;20210;-75
2021/09/26 08:33:32;;;;;;;25.27;22.57;;;;;;;;;;5063711;28;20697;-75
2021/09/26 08:36:00;;;;;;;24.73;22.13;;;;;;;;;;5063606;28;20226;-75
2021/09/26 08:38:26;;;;;;;24.30;21.47;;;;;;;;;;5063225;28;20575;-75
2021/09/26 08:40:53;;;;;;;22.83;20.67;;;;;;;;;;5063851;28;20209;-75
2021/09/26 08:43:20;;;;;;;23.03;20.63;;;;;;;;;;5063184;28;20220;-75
2021/09/26 08:45:47;;;;;;;23.37;20.93;;;;;;;;;;5063748;28;20213;-76
2021/09/26 08:48:14;;;;;;;25.10;22.50;;;;;;;;;;5067774;28;20694;-75
2021/09/26 08:50:43;;;;;;;23.63;20.67;;;;;;;;;;5068406;28;20209;-76
2021/09/26 08:53:11;;;;;;;24.60;22.03;;;;;;;;;;5067759;28;20217;-76
2021/09/26 08:55:38;;;;;;;47.13;22.40;;;;;;;;;;5068598;28;20213;-76
2021/09/26 08:58:04;;;;;;;22.97;20.50;;;;;;;;;;5068595;28;20729;-76
2021/09/26 09:00:31;;;;;;;23.73;21.23;;;;;;;;;;5068305;28;20218;-76
2021/09/26 09:02:58;;;;;;;23.87;20.97;;;;;;;;;;5067817;28;20298;-76
2021/09/26 09:05:30;;;;;;;22.67;20.43;;;;;;;;;;5068497;28;20202;-76
2021/09/26 09:08:05;;;;;;;22.63;20.27;;;;;;;;;;5067153;28;20287;-76
2021/09/26 09:10:40;;;;;;;23.33;20.70;;;;;;;;;;5068057;28;20206;-75
2021/09/26 09:13:06;;;;;;;22.80;20.50;;;;;;;;;;5068562;28;20208;-75
2021/09/26 09:15:33;;;;;;;22.47;19.77;;;;;;;;;;5067861;28;20218;-76
2021/09/26 09:18:01;;;;;;;22.57;20.33;;;;;;;;;;5068037;28;20263;-76
2021/09/26 09:20:29;;;;;;;21.47;19.27;;;;;;;;;;5067895;28;20570;-75
2021/09/26 09:22:59;;;;;;;22.27;19.90;;;;;;;;;;5067603;28;20679;-76
2021/09/26 09:25:36;;;;;;;26.53;19.63;;;;;;;;;;5067234;28;20655;-76
2021/09/26 09:28:06;;;;;;;21.53;19.20;;;;;;;;;;5067862;28;20225;-76
2021/09/26 09:30:35;;;;;;;22.53;20.27;;;;;;;;;;5067568;28;20206;-76
2021/09/26 09:33:02;;;;;;;21.60;19.43;;;;;;;;;;5067608;28;20229;-76
2021/09/26 09:35:34;;;;;;;21.17;19.10;;;;;;;;;;5066972;28;20213;-76
2021/09/26 09:38:01;;;;;;;23.50;21.03;;;;;;;;;;5067146;28;20210;-76
2021/09/26 09:40:28;;;;;;;21.50;19.23;;;;;;;;;;5067502;28;20668;-76
2021/09/26 09:42:56;;;;;;;21.60;19.40;;;;;;;;;;5066797;28;20280;-76
2021/09/26 09:45:26;;;;;;;21.90;19.70;;;;;;;;;;5067490;28;20267;-76
2021/09/26 09:48:11;;;;;;;23.03;20.67;;;;;;;;;;5067500;28;20278;-75
2021/09/26 09:50:57;;;;;;;22.10;19.90;;;;;;;;;;5066987;28;20209;-75
2021/09/26 09:53:36;;;;;;;22.57;20.37;;;;;;;;;;5066454;28;20311;-76
2021/09/26 09:56:13;;;;;;;22.63;20.37;;;;;;;;;;5066169;28;20291;-75
2021/09/26 09:58:43;;;;;;;19.90;17.80;;;;;;;;;;5066054;28;20263;-75
2021/09/26 10:01:14;;;;;;;20.70;18.70;;;;;;;;;;5067445;28;20633;-75
2021/09/26 10:03:47;;;;;;;21.57;18.13;;;;;;;;;;5067090;28;20230;-76
2021/09/26 10:06:35;;;;;;;21.37;19.17;;;;;;;;;;5067561;28;20214;-76
2021/09/26 10:09:06;;;;;;;21.17;19.07;;;;;;;;;;5066558;28;20244;-75
2021/09/26 10:11:32;;;;;;;21.13;19.00;;;;;;;;;;5066805;28;20206;-76
2021/09/26 10:14:00;;;;;;;20.90;18.80;;;;;;;;;;5066842;28;20637;-75
2021/09/26 10:16:28;;;;;;;20.70;18.50;;;;;;;;;;5066552;28;20213;-75
2021/09/26 10:18:55;;;;;;;22.27;20.07;;;;;;;;;;5066737;28;20256;-75
2021/09/26 10:21:22;;;;;;;19.53;17.53;;;;;;;;;;5066686;28;20911;-75
2021/09/26 10:23:52;;;;;;;20.40;18.30;;;;;;;;;;5066377;28;20209;-75
2021/09/26 10:26:24;;;;;;;20.00;18.17;;;;;;;;;;5066349;28;20222;-75
2021/09/26 10:28:53;;;;;;;20.83;18.83;;;;;;;;;;5066222;28;20254;-75
2021/09/26 10:31:20;;;;;;;20.93;18.53;;;;;;;;;;5066876;28;20213;-75
2021/09/26 10:33:49;;;;;;;26.47;18.37;;;;;;;;;;5066020;28;20258;-75
2021/09/26 10:36:20;;;;;;;19.60;17.67;;;;;;;;;;5066322;28;20698;-75
2021/09/26 10:38:48;;;;;;;19.80;17.90;;;;;;;;;;5066193;28;20298;-75
2021/09/26 10:41:15;;;;;;;18.77;16.83;;;;;;;;;;5066340;28;20740;-75
2021/09/26 10:43:42;;;;;;;19.77;18.02;;;;;;;;;;5065131;28;20450;-75
2021/09/26 10:46:16;;;;;;;21.03;18.10;;;;;;;;;;5065890;28;20631;-75
2021/09/26 10:49:03;;;;;;;19.30;17.37;;;;;;;;;;5065759;28;21193;-75
2021/09/26 10:51:44;;;;;;;19.97;17.87;;;;;;;;;;5064745;28;20207;-75
2021/09/26 10:54:32;;;;;;;23.07;18.37;;;;;;;;;;5065876;28;20247;-75
2021/09/26 10:57:18;;;;;;;20.67;18.67;;;;;;;;;;5065861;28;20273;-75
2021/09/26 10:59:47;;;;;;;19.87;18.00;;;;;;;;;;5065644;28;20215;-75
2021/09/26 11:02:48;;;;;;;19.00;17.17;;;;;;;;;;5065543;28;20292;-75
2021/09/26 11:05:37;;;;;;;22.73;20.10;;;;;;;;;;5066059;28;20309;-75
2021/09/26 11:08:06;;;;;;;20.83;18.73;;;;;;;;;;5066245;28;20202;-75
2021/09/26 11:10:39;;;;;;;20.30;18.27;;;;;;;;;;5065021;28;20673;-74
2021/09/26 11:13:25;;;;;;;19.57;17.20;;;;;;;;;;5065761;28;20219;-75
2021/09/26 11:16:08;;;;;;;18.73;16.93;;;;;;;;;;5065960;28;20219;-75
2021/09/26 11:18:59;;;;;;;19.37;16.67;;;;;;;;;;5065910;28;20589;-75
2021/09/26 11:21:51;;;;;;;18.63;16.97;;;;;;;;;;5066139;28;20207;-75
2021/09/26 11:24:44;;;;;;;17.17;15.57;;;;;;;;;;5065913;28;20568;-75
2021/09/26 11:27:23;;;;;;;18.40;15.57;;;;;;;;;;5065480;28;20600;-73
2021/09/26 11:30:25;;;;;;;17.30;15.70;;;;;;;;;;5065268;28;20241;-73
2021/09/26 11:33:01;;;;;;;16.77;15.07;;;;;;;;;;5065245;28;20592;-73
2021/09/26 11:35:30;;;;;;;18.03;16.23;;;;;;;;;;5065512;28;20267;-73
2021/09/26 11:38:00;;;;;;;18.40;16.50;;;;;;;;;;5065089;28;20217;-74
2021/09/26 11:40:56;;;;;;;19.07;17.27;;;;;;;;;;5065854;28;20213;-74
2021/09/26 11:43:23;;;;;;;17.63;15.93;;;;;;;;;;5063857;28;20555;-73
2021/09/26 11:45:51;;;;;;;19.03;17.40;;;;;;;;;;5064876;28;20219;-73
2021/09/26 11:48:18;;;;;;;18.47;16.73;;;;;;;;;;5064449;28;20258;-73
2021/09/26 11:50:47;;;;;;;17.77;15.90;;;;;;;;;;5064738;28;20228;-73
2021/09/26 11:53:16;;;;;;;17.40;15.73;;;;;;;;;;5064292;28;20662;-73
2021/09/26 11:55:44;;;;;;;18.30;16.50;;;;;;;;;;5064830;28;20209;-72
2021/09/26 11:58:12;;;;;;;17.83;16.27;;;;;;;;;;5065001;28;20208;-73
2021/09/26 12:00:40;;;;;;;17.70;16.10;;;;;;;;;;5065050;28;20314;-73
2021/09/26 12:03:19;;;;;;;16.10;14.43;;;;;;;;;;5065481;28;20873;-73
2021/09/26 12:05:46;;;;;;;17.20;15.80;;;;;;;;;;5064934;28;20220;-73
2021/09/26 12:08:13;;;;;;;18.40;16.70;;;;;;;;;;5064718;28;20227;-73
2021/09/26 12:10:41;;;;;;;17.33;15.67;;;;;;;;;;5064537;28;20209;-73
2021/09/26 12:13:19;;;;;;;16.07;14.47;;;;;;;;;;5064546;28;20212;-73
2021/09/26 12:15:46;;;;;;;16.90;13.93;;;;;;;;;;5065310;28;20215;-75
2021/09/26 12:18:21;;;;;;;16.10;14.67;;;;;;;;;;5064319;28;20294;-74
2021/09/26 12:20:47;;;;;;;16.03;13.97;;;;;;;;;;5064670;28;20278;-73
2021/09/26 12:23:24;;;;;;;15.40;13.67;;;;;;;;;;5067823;28;20267;-74
2021/09/26 12:26:02;;;;;;;17.80;15.97;;;;;;;;;;5068972;28;20217;-71
2021/09/26 12:28:29;;;;;;;16.47;14.70;;;;;;;;;;5068798;28;20220;-72
2021/09/26 12:30:58;;;;;;;17.90;16.23;;;;;;;;;;5069066;28;21161;-74
2021/09/26 12:33:28;;;;;;;16.10;14.60;;;;;;;;;;5068977;28;20236;-75
2021/09/26 12:35:56;;;;;;;18.20;16.27;;;;;;;;;;5069324;28;20215;-74
2021/09/26 12:38:28;;;;;;;18.20;16.53;;;;;;;;;;5068674;28;20219;-74
2021/09/26 12:40:57;;;;;;;17.67;16.07;;;;;;;;;;5068714;28;20242;-74
2021/09/26 12:43:26;;;;;;;18.53;16.90;;;;;;;;;;5068256;28;20294;-75
2021/09/26 12:45:54;;;;;;;19.37;17.37;;;;;;;;;;5068230;28;20238;-75
2021/09/26 12:48:22;;;;;;;18.67;16.80;;;;;;;;;;5068580;28;20891;-75
2021/09/26 12:50:52;;;;;;;19.77;18.03;;;;;;;;;;5068337;28;20797;-75
2021/09/26 12:53:22;;;;;;;19.27;17.33;;;;;;;;;;5067903;28;20214;-74
2021/09/26 12:55:50;;;;;;;18.20;16.60;;;;;;;;;;5068172;28;20649;-75
2021/09/26 12:58:19;;;;;;;18.50;16.50;;;;;;;;;;5068309;28;20215;-75
2021/09/26 13:00:46;;;;;;;17.87;16.07;;;;;;;;;;5067919;28;20226;-75
2021/09/26 13:03:15;;;;;;;20.30;18.37;;;;;;;;;;5068264;28;20234;-75
2021/09/26 13:05:53;;;;;;;21.40;18.67;;;;;;;;;;5067684;28;20266;-75
2021/09/26 13:08:31;;;;;;;19.77;17.77;;;;;;;;;;5067965;28;20208;-73
2021/09/26 13:11:07;;;;;;;22.43;20.43;;;;;;;;;;5067701;28;20209;-73
2021/09/26 13:13:36;;;;;;;22.80;20.60;;;;;;;;;;5067586;28;20663;-73
2021/09/26 13:16:27;;;;;;;22.00;20.00;;;;;;;;;;5068559;28;20216;-72
2021/09/26 13:18:54;;;;;;;22.30;20.13;;;;;;;;;;5067523;28;20224;-74
2021/09/26 13:21:29;;;;;;;20.07;18.03;;;;;;;;;;5067763;28;20213;-73
2021/09/26 13:23:58;;;;;;;20.87;18.70;;;;;;;;;;5067690;28;20653;-74
2021/09/26 13:26:32;;;;;;;21.10;18.93;;;;;;;;;;5067882;28;20265;-75
2021/09/26 13:29:10;;;;;;;20.23;18.23;;;;;;;;;;5067811;28;20229;-74
2021/09/26 13:31:48;;;;;;;19.63;17.80;;;;;;;;;;5067975;28;20642;-74
2021/09/26 13:34:14;;;;;;;18.97;17.27;;;;;;;;;;5066560;28;20563;-74
2021/09/26 13:36:51;;;;;;;20.63;18.83;;;;;;;;;;5067741;28;21113;-73
2021/09/26 13:39:35;;;;;;;20.40;18.40;;;;;;;;;;5067186;28;20206;-74
2021/09/26 13:42:07;;;;;;;20.73;18.83;;;;;;;;;;5067178;28;20214;-73
2021/09/26 13:44:34;;;;;;;20.17;18.17;;;;;;;;;;5067495;28;20694;-72
2021/09/26 13:47:00;;;;;;;20.23;18.17;;;;;;;;;;5066833;28;20236;-75
2021/09/26 13:49:27;;;;;;;21.67;19.63;;;;;;;;;;5067324;28;20271;-74
2021/09/26 13:51:53;;;;;;;21.07;19.07;;;;;;;;;;5067721;28;20281;-73
2021/09/26 13:54:19;;;;;;;24.37;20.00;;;;;;;;;;5067040;28;20363;-73
2021/09/26 13:56:46;;;;;;;20.83;18.77;;;;;;;;;;5067319;28;20225;-74
2021/09/26 13:59:14;;;;;;;18.40;16.67;;;;;;;;;;5066961;28;20225;-72
2021/09/26 14:01:40;;;;;;;17.50;16.00;;;;;;;;;;5067405;28;20221;-73
2021/09/26 14:04:07;;;;;;;17.87;16.20;;;;;;;;;;5067560;28;20244;-73
2021/09/26 14:06:33;;;;;;;17.53;15.93;;;;;;;;;;5067440;28;20260;-73
2021/09/26 14:09:00;;;;;;;16.17;14.77;;;;;;;;;;5066969;28;20214;-73
2021/09/26 14:11:26;;;;;;;17.33;15.73;;;;;;;;;;5067094;28;20250;-73
2021/09/26 14:13:53;;;;;;;16.13;14.63;;;;;;;;;;5066763;28;20217;-73
2021/09/26 14:16:21;;;;;;;18.40;16.80;;;;;;;;;;5066988;28;20274;-73
2021/09/26 14:18:48;;;;;;;19.20;17.50;;;;;;;;;;5066913;28;20582;-74
2021/09/26 14:21:16;;;;;;;18.23;16.57;;;;;;;;;;5066746;28;20213;-73
2021/09/26 14:23:43;;;;;;;20.97;18.57;;;;;;;;;;5066555;28;20278;-73
2021/09/26 14:26:10;;;;;;;18.43;16.83;;;;;;;;;;5066557;28;20270;-74
2021/09/26 14:28:38;;;;;;;18.67;17.10;;;;;;;;;;5066476;28;20222;-74
2021/09/26 14:31:08;;;;;;;18.23;16.53;;;;;;;;;;5066363;28;20238;-73